SWA766 KBNA-KRDU
Flight info
| Callsign | SWA766 |
|---|---|
| Flight time | N/A |
| Altitude | 37000 |
| Route | TAZMO4 BURME VXV KPASS ALDAN4 |
| Aircraft | B738/M-SDE2E3FGHIRWXY/LB1 |
Departure
| Time | 2026-05-05 21:34 |
|---|---|
| Airport | Nashville International Airport (KBNA) |
Arrival
| Time | N/A |
|---|---|
| Airport | Raleigh-Durham International Airport (KRDU) |
| Time | Latitude | Longitude | Altitude | Speed | Heading |
|---|---|---|---|---|---|
| 2026-05-05 21:20 | 36.12801 | -86.66847 | 571 ft | 0 kts | 271° |
| 2026-05-05 21:25 | 36.12800 | -86.66835 | 568 ft | 4 kts | 261° |
| 2026-05-05 21:26 | 36.12811 | -86.66809 | 576 ft | 4 kts | 211° |
| 2026-05-05 21:26 | 36.12834 | -86.66803 | 568 ft | 4 kts | 160° |
| 2026-05-05 21:26 | 36.12846 | -86.66811 | 569 ft | 0 kts | 131° |
| 2026-05-05 21:28 | 36.12844 | -86.66810 | 570 ft | 2 kts | 131° |
| 2026-05-05 21:28 | 36.12823 | -86.66791 | 572 ft | 6 kts | 153° |
| 2026-05-05 21:28 | 36.12770 | -86.66788 | 572 ft | 9 kts | 195° |
| 2026-05-05 21:29 | 36.12712 | -86.66838 | 570 ft | 11 kts | 221° |
| 2026-05-05 21:29 | 36.12644 | -86.66898 | 570 ft | 12 kts | 188° |
| 2026-05-05 21:29 | 36.12563 | -86.66900 | 571 ft | 12 kts | 207° |
| 2026-05-05 21:29 | 36.12491 | -86.66951 | 577 ft | 12 kts | 209° |
| 2026-05-05 21:30 | 36.12421 | -86.67000 | 573 ft | 11 kts | 211° |
| 2026-05-05 21:30 | 36.12358 | -86.67061 | 578 ft | 12 kts | 223° |
| 2026-05-05 21:30 | 36.12291 | -86.67141 | 575 ft | 15 kts | 224° |
| 2026-05-05 21:30 | 36.12217 | -86.67230 | 576 ft | 15 kts | 224° |
| 2026-05-05 21:31 | 36.12219 | -86.67335 | 581 ft | 14 kts | 310° |
| 2026-05-05 21:31 | 36.12285 | -86.67422 | 579 ft | 14 kts | 315° |
| 2026-05-05 21:31 | 36.12347 | -86.67505 | 581 ft | 13 kts | 313° |
| 2026-05-05 21:31 | 36.12409 | -86.67584 | 580 ft | 13 kts | 313° |
| 2026-05-05 21:32 | 36.12424 | -86.67674 | 578 ft | 12 kts | 223° |
| 2026-05-05 21:32 | 36.12356 | -86.67729 | 579 ft | 12 kts | 251° |
| 2026-05-05 21:32 | 36.12375 | -86.67828 | 578 ft | 12 kts | 289° |
| 2026-05-05 21:32 | 36.12401 | -86.67924 | 577 ft | 10 kts | 285° |
| 2026-05-05 21:33 | 36.12371 | -86.67982 | 575 ft | 10 kts | 199° |
| 2026-05-05 21:33 | 36.12174 | -86.68061 | 575 ft | 65 kts | 198° |
| 2026-05-05 21:33 | 36.11522 | -86.68322 | 580 ft | 130 kts | 197° |
| 2026-05-05 21:33 | 36.10540 | -86.68699 | 1006 ft | 147 kts | 197° |
| 2026-05-05 21:34 | 36.09587 | -86.69071 | 2019 ft | 141 kts | 194° |
| 2026-05-05 21:34 | 36.08595 | -86.69378 | 2594 ft | 158 kts | 183° |
| 2026-05-05 21:34 | 36.07405 | -86.69126 | 2904 ft | 190 kts | 165° |
| 2026-05-05 21:34 | 36.06095 | -86.68449 | 3194 ft | 214 kts | 160° |
| 2026-05-05 21:35 | 36.04693 | -86.67662 | 3624 ft | 233 kts | 160° |
| 2026-05-05 21:35 | 36.03177 | -86.66812 | 4169 ft | 247 kts | 161° |
| 2026-05-05 21:35 | 36.01599 | -86.65930 | 5029 ft | 251 kts | 161° |
| 2026-05-05 21:35 | 36.00101 | -86.64686 | 5722 ft | 271 kts | 142° |
| 2026-05-05 21:36 | 35.98888 | -86.62820 | 6465 ft | 286 kts | 131° |
| 2026-05-05 21:36 | 35.97871 | -86.60676 | 6889 ft | 298 kts | 114° |
| 2026-05-05 21:36 | 35.97564 | -86.58106 | 7015 ft | 308 kts | 95° |
| 2026-05-05 21:36 | 35.97566 | -86.55430 | 7015 ft | 312 kts | 93° |
| 2026-05-05 21:37 | 35.97579 | -86.52756 | 7021 ft | 311 kts | 94° |
| 2026-05-05 21:37 | 35.97551 | -86.50096 | 7291 ft | 315 kts | 95° |
| 2026-05-05 21:37 | 35.97518 | -86.47373 | 8067 ft | 319 kts | 90° |
| 2026-05-05 21:37 | 35.97956 | -86.44668 | 8848 ft | 325 kts | 74° |
| 2026-05-05 21:38 | 35.98628 | -86.41986 | 9632 ft | 330 kts | 72° |
| 2026-05-05 21:38 | 35.99332 | -86.39255 | 10298 ft | 338 kts | 72° |
| 2026-05-05 21:38 | 36.00065 | -86.36393 | 10515 ft | 361 kts | 72° |
| 2026-05-05 21:38 | 36.00837 | -86.33333 | 10734 ft | 383 kts | 72° |
| 2026-05-05 21:39 | 36.01633 | -86.30129 | 11206 ft | 395 kts | 72° |
| 2026-05-05 21:39 | 36.02434 | -86.26867 | 11908 ft | 398 kts | 72° |
| 2026-05-05 21:39 | 36.03227 | -86.23621 | 12650 ft | 401 kts | 72° |
| 2026-05-05 21:39 | 36.04035 | -86.20303 | 13342 ft | 405 kts | 72° |
| 2026-05-05 21:40 | 36.04852 | -86.16943 | 13979 ft | 409 kts | 71° |
| 2026-05-05 21:40 | 36.05673 | -86.13562 | 14600 ft | 413 kts | 71° |
| 2026-05-05 21:40 | 36.06501 | -86.10151 | 15218 ft | 417 kts | 71° |
| 2026-05-05 21:40 | 36.07106 | -86.06629 | 15831 ft | 422 kts | 87° |
| 2026-05-05 21:41 | 36.06936 | -86.03007 | 16515 ft | 423 kts | 96° |
| 2026-05-05 21:41 | 36.06635 | -85.99376 | 17144 ft | 427 kts | 96° |
| 2026-05-05 21:41 | 36.06337 | -85.95709 | 17712 ft | 432 kts | 96° |
| 2026-05-05 21:41 | 36.06052 | -85.91991 | 18272 ft | 436 kts | 96° |
| 2026-05-05 21:42 | 36.05780 | -85.88239 | 18783 ft | 439 kts | 95° |
| 2026-05-05 21:42 | 36.05517 | -85.84507 | 19265 ft | 443 kts | 95° |
| 2026-05-05 21:42 | 36.05249 | -85.80701 | 19767 ft | 446 kts | 95° |
| 2026-05-05 21:42 | 36.04978 | -85.76872 | 20279 ft | 449 kts | 95° |
| 2026-05-05 21:43 | 36.04708 | -85.72994 | 20777 ft | 453 kts | 95° |
| 2026-05-05 21:43 | 36.04439 | -85.69109 | 21252 ft | 456 kts | 95° |
| 2026-05-05 21:43 | 36.04166 | -85.65186 | 21710 ft | 460 kts | 95° |
| 2026-05-05 21:43 | 36.03889 | -85.61222 | 22154 ft | 464 kts | 95° |
| 2026-05-05 21:44 | 36.03609 | -85.57236 | 22595 ft | 467 kts | 95° |
| 2026-05-05 21:44 | 36.03325 | -85.53219 | 23036 ft | 470 kts | 95° |
| 2026-05-05 21:44 | 36.03042 | -85.49232 | 23453 ft | 474 kts | 95° |
| 2026-05-05 21:44 | 36.02750 | -85.45155 | 23807 ft | 477 kts | 95° |
| 2026-05-05 21:45 | 36.02457 | -85.41061 | 24168 ft | 480 kts | 95° |
| 2026-05-05 21:45 | 36.02160 | -85.36941 | 24529 ft | 483 kts | 95° |
| 2026-05-05 21:45 | 36.01859 | -85.32802 | 24882 ft | 485 kts | 95° |
| 2026-05-05 21:45 | 36.01556 | -85.28636 | 25277 ft | 488 kts | 95° |
| 2026-05-05 21:46 | 36.01249 | -85.24448 | 25653 ft | 490 kts | 95° |
| 2026-05-05 21:46 | 36.00939 | -85.20233 | 25994 ft | 493 kts | 95° |
| 2026-05-05 21:46 | 36.00627 | -85.16005 | 26350 ft | 495 kts | 95° |
| 2026-05-05 21:46 | 36.00313 | -85.11764 | 26692 ft | 497 kts | 95° |
| 2026-05-05 21:47 | 35.99995 | -85.07499 | 27012 ft | 500 kts | 95° |
| 2026-05-05 21:47 | 35.99674 | -85.03216 | 27350 ft | 502 kts | 95° |
| 2026-05-05 21:47 | 35.99351 | -84.98969 | 27675 ft | 504 kts | 95° |
| 2026-05-05 21:47 | 35.99020 | -84.94648 | 28049 ft | 507 kts | 95° |
| 2026-05-05 21:48 | 35.98686 | -84.90309 | 28355 ft | 509 kts | 95° |
| 2026-05-05 21:48 | 35.98349 | -84.85950 | 28646 ft | 511 kts | 95° |
| 2026-05-05 21:48 | 35.98009 | -84.81563 | 28913 ft | 514 kts | 95° |
| 2026-05-05 21:48 | 35.97665 | -84.77152 | 29190 ft | 516 kts | 95° |
| 2026-05-05 21:49 | 35.97319 | -84.72727 | 29469 ft | 519 kts | 95° |
| 2026-05-05 21:49 | 35.96969 | -84.68284 | 29712 ft | 522 kts | 95° |
| 2026-05-05 21:49 | 35.96616 | -84.63806 | 29979 ft | 524 kts | 95° |
| 2026-05-05 21:49 | 35.96261 | -84.59328 | 30211 ft | 526 kts | 95° |
| 2026-05-05 21:50 | 35.95901 | -84.54815 | 30402 ft | 529 kts | 95° |
| 2026-05-05 21:50 | 35.95542 | -84.50337 | 30615 ft | 530 kts | 94° |
| 2026-05-05 21:50 | 35.95178 | -84.45811 | 30919 ft | 530 kts | 94° |
| 2026-05-05 21:50 | 35.94812 | -84.41285 | 31191 ft | 530 kts | 94° |
| 2026-05-05 21:51 | 35.94443 | -84.36748 | 31442 ft | 531 kts | 94° |
| 2026-05-05 21:51 | 35.94072 | -84.32202 | 31708 ft | 532 kts | 94° |
| 2026-05-05 21:51 | 35.93698 | -84.27649 | 31946 ft | 533 kts | 94° |
| 2026-05-05 21:51 | 35.93326 | -84.23137 | 32194 ft | 534 kts | 93° |
| 2026-05-05 21:52 | 35.92569 | -84.14009 | 32793 ft | 534 kts | 93° |
| 2026-05-05 21:52 | 35.92188 | -84.09453 | 33073 ft | 534 kts | 93° |
| 2026-05-05 21:52 | 35.91805 | -84.04888 | 33319 ft | 536 kts | 93° |
| 2026-05-05 21:53 | 35.91419 | -84.00305 | 33558 ft | 536 kts | 92° |
| 2026-05-05 21:53 | 35.91096 | -83.95714 | 33844 ft | 533 kts | 87° |
| 2026-05-05 21:53 | 35.91250 | -83.91233 | 34091 ft | 526 kts | 77° |
| 2026-05-05 21:53 | 35.91883 | -83.86806 | 34316 ft | 520 kts | 69° |
| 2026-05-05 21:54 | 35.92934 | -83.82571 | 34496 ft | 512 kts | 60° |
| 2026-05-05 21:54 | 35.94379 | -83.78591 | 34687 ft | 508 kts | 57° |
| 2026-05-05 21:54 | 35.95883 | -83.74649 | 34930 ft | 507 kts | 56° |
| 2026-05-05 21:54 | 35.97396 | -83.70708 | 35171 ft | 506 kts | 56° |
| 2026-05-05 21:55 | 35.98898 | -83.66774 | 35389 ft | 506 kts | 56° |
| 2026-05-05 21:55 | 36.00387 | -83.62825 | 35609 ft | 507 kts | 56° |
| 2026-05-05 21:55 | 36.01859 | -83.58882 | 35830 ft | 506 kts | 57° |
| 2026-05-05 21:55 | 36.03307 | -83.54972 | 36054 ft | 506 kts | 57° |
| 2026-05-05 21:56 | 36.04765 | -83.51015 | 36330 ft | 505 kts | 57° |
| 2026-05-05 21:56 | 36.06217 | -83.47061 | 36589 ft | 504 kts | 56° |
| 2026-05-05 21:56 | 36.07664 | -83.43117 | 36794 ft | 504 kts | 56° |
| 2026-05-05 21:56 | 36.09111 | -83.39174 | 36977 ft | 505 kts | 56° |
| 2026-05-05 21:57 | 36.10567 | -83.35207 | 36969 ft | 507 kts | 56° |
| 2026-05-05 21:57 | 36.13468 | -83.27278 | 36977 ft | 504 kts | 56° |
| 2026-05-05 21:58 | 36.16345 | -83.19389 | 36967 ft | 501 kts | 56° |
| 2026-05-05 21:58 | 36.19199 | -83.11549 | 36947 ft | 498 kts | 56° |
| 2026-05-05 21:59 | 36.22037 | -83.03743 | 36947 ft | 496 kts | 56° |
| 2026-05-05 21:59 | 36.24845 | -82.96001 | 36959 ft | 496 kts | 56° |
| 2026-05-05 22:00 | 36.27670 | -82.88194 | 36970 ft | 497 kts | 56° |
| 2026-05-05 22:00 | 36.30499 | -82.80353 | 36970 ft | 499 kts | 56° |
| 2026-05-05 22:01 | 36.30979 | -82.79021 | 36962 ft | 500 kts | 56° |